Terminal Aerodrome Forecast
Issued by NWS

Home | Current Version | Previous Version | Text Only | Print | Product List | Glossary On
Versions: 1 2 3 4 5 6 7 8 9 10 11 12
000
FTUS42 KGSP 251731
TAFHKY
TAF
KHKY 251731Z 2518/2618 30004KT P6SM FEW250
     FM252000 26003KT P6SM SKC
     FM260800 31005KT P6SM SKC=

USA.gov is the U.S. government's official web portal to all federal, state and local government web resources and services.